Time;durP1;ratioP1;P1;durP2;ratioP2;P2;SDS_P1;SDS_P2;PMS_P1;PMS_P2;Temp;Humidity;BMP_temperature;BMP_pressure;BME280_temperature;BME280_humidity;BME280_pressure;Samples;Min_cycle;Max_cycle;Signal;HPM_P1;HPM_P2
2021/12/18 00:32:55;;;;;;;1.67;0.75;;;;;;;7.23;100.00;104176.41;6241268;22;20123;-84
2021/12/18 00:35:20;;;;;;;2.20;1.70;;;;;;;7.21;100.00;104175.47;6247513;22;20008;-84
2021/12/18 00:37:46;;;;;;;0.70;0.70;;;;;;;7.24;100.00;104171.16;6247067;23;20024;-84
2021/12/18 00:40:19;;;;;;;2.25;1.50;;;;;;;7.24;100.00;104162.31;6246683;23;20111;-84
2021/12/18 00:42:57;;;;;;;1.55;1.10;;;;;;;7.25;100.00;104164.09;6247556;22;20368;-83
2021/12/18 00:45:22;;;;;;;1.33;1.08;;;;;;;7.30;100.00;104166.00;6245189;23;20016;-84
2021/12/18 00:47:48;;;;;;;1.40;0.88;;;;;;;7.27;100.00;104155.34;6247955;22;20073;-85
2021/12/18 00:50:33;;;;;;;1.42;1.30;;;;;;;7.26;100.00;104152.69;6247615;23;20011;-84
2021/12/18 00:52:59;;;;;;;2.10;1.33;;;;;;;7.23;100.00;104157.91;6245929;22;20008;-84
2021/12/18 00:55:24;;;;;;;0.88;0.88;;;;;;;7.17;100.00;104149.81;6247068;22;20071;-84
2021/12/18 00:57:52;;;;;;;0.82;0.82;;;;;;;7.21;100.00;104147.28;6247012;23;20075;-83
2021/12/18 01:00:23;;;;;;;1.10;1.00;;;;;;;7.25;100.00;104153.50;6246803;22;20027;-84
2021/12/18 01:02:52;;;;;;;1.58;1.35;;;;;;;7.28;100.00;104157.13;6247671;22;20023;-84
2021/12/18 01:05:17;;;;;;;1.13;0.80;;;;;;;7.27;100.00;104150.06;6247582;22;20080;-84
2021/12/18 01:07:43;;;;;;;3.67;1.13;;;;;;;7.25;100.00;104150.88;6246392;22;20008;-85
2021/12/18 01:10:36;;;;;;;1.85;1.40;;;;;;;7.24;100.00;104150.00;6246945;22;20075;-84
2021/12/18 01:13:04;;;;;;;0.85;0.82;;;;;;;7.27;100.00;104149.16;6246840;22;20004;-84
2021/12/18 01:15:34;;;;;;;1.38;1.05;;;;;;;7.28;100.00;104151.84;6246910;22;20291;-84
2021/12/18 01:23:29;;;;;;;2.63;1.85;;;;;;;7.29;100.00;104158.94;6246822;23;20085;-84
2021/12/18 01:25:55;;;;;;;1.13;0.80;;;;;;;7.28;100.00;104150.97;6247201;22;20107;-84
2021/12/18 01:28:22;;;;;;;2.78;1.67;;;;;;;7.23;100.00;104155.25;6246323;22;20254;-84
2021/12/18 01:30:47;;;;;;;1.75;1.23;;;;;;;7.19;100.00;104158.66;6246743;22;20008;-84
2021/12/18 01:33:12;;;;;;;4.03;1.00;;;;;;;7.27;100.00;104154.44;6246228;23;20038;-84
2021/12/18 01:35:38;;;;;;;1.33;0.73;;;;;;;7.26;100.00;104155.31;6246280;23;20024;-83
2021/12/18 01:38:04;;;;;;;2.85;1.10;;;;;;;7.23;100.00;104153.47;6247359;23;20012;-84
2021/12/18 01:40:30;;;;;;;0.90;0.90;;;;;;;7.24;100.00;104160.56;6246869;23;20328;-84
2021/12/18 01:53:36;;;;;;;1.45;1.15;;;;;;;7.25;100.00;104158.81;6247046;23;20099;-84
2021/12/18 01:56:02;;;;;;;1.10;0.77;;;;;;;7.28;100.00;104156.25;6245861;23;20032;-84
2021/12/18 01:58:28;;;;;;;3.13;1.55;;;;;;;7.24;100.00;104162.31;6246991;23;20008;-84
2021/12/18 02:00:56;;;;;;;1.35;1.10;;;;;;;7.30;100.00;104159.81;6247072;23;20057;-84
2021/12/18 02:03:21;;;;;;;1.45;1.35;;;;;;;7.24;100.00;104157.03;6245407;23;20004;-84
2021/12/18 02:05:48;;;;;;;1.92;1.35;;;;;;;7.26;100.00;104147.38;6246837;23;20088;-84
2021/12/18 02:08:18;;;;;;;1.58;0.60;;;;;;;7.26;100.00;104155.31;6246633;23;20008;-84
2021/12/18 02:10:51;;;;;;;;;;;;;;;7.29;100.00;104153.66;6246641;23;20383;-85
2021/12/18 02:21:21;;;;;;;0.70;0.70;;;;;;;7.39;100.00;104136.25;6246843;23;20447;-84
2021/12/18 02:23:47;;;;;;;1.25;1.05;;;;;;;7.40;100.00;104135.38;6246469;23;20004;-84
2021/12/18 02:26:25;;;;;;;1.27;0.90;;;;;;;7.41;100.00;104132.78;6245772;23;20000;-84
2021/12/18 02:28:53;;;;;;;1.73;1.27;;;;;;;7.33;100.00;104122.88;6247075;23;20039;-84
2021/12/18 02:31:19;;;;;;;1.70;0.60;;;;;;;7.31;100.00;104121.97;6246368;23;20110;-84
2021/12/18 02:33:46;;;;;;;0.40;0.40;;;;;;;7.30;100.00;104117.50;6246463;23;20000;-84
2021/12/18 02:36:20;;;;;;;0.93;0.75;;;;;;;7.31;100.00;104117.53;6246449;23;20008;-84
2021/12/18 02:41:39;;;;;;;1.75;1.05;;;;;;;7.29;100.00;104113.09;6246730;23;20095;-84
2021/12/18 02:44:06;;;;;;;1.35;1.05;;;;;;;7.31;100.00;104114.03;6245974;23;20054;-84
2021/12/18 02:46:31;;;;;;;4.38;0.68;;;;;;;7.32;100.00;104103.47;6246417;23;20000;-84
2021/12/18 02:48:58;;;;;;;1.20;1.10;;;;;;;7.27;100.00;104099.84;6246033;23;20018;-84
2021/12/18 02:51:24;;;;;;;2.35;0.50;;;;;;;7.29;100.00;104099.88;6246193;23;20058;-84
2021/12/18 02:53:52;;;;;;;1.88;1.08;;;;;;;7.31;100.00;104095.53;6246184;23;20007;-84
2021/12/18 02:56:23;;;;;;;1.48;1.13;;;;;;;7.29;100.00;104091.94;6246154;23;20066;-84
2021/12/18 02:58:51;;;;;;;1.95;1.27;;;;;;;7.33;100.00;104091.13;6246742;23;20027;-84
2021/12/18 03:01:20;;;;;;;1.77;0.90;;;;;;;7.27;100.00;104086.63;6245669;23;20004;-84
2021/12/18 03:03:47;;;;;;;3.78;1.83;;;;;;;7.25;100.00;104093.63;6245785;23;20004;-84
2021/12/18 03:20:22;;;;;;;0.50;0.50;;;;;;;7.31;100.00;104098.16;6247034;23;20450;-84
2021/12/18 03:27:21;;;;;;;1.40;0.85;;;;;;;7.16;100.00;104098.69;6245398;23;20449;-84
2021/12/18 03:29:46;;;;;;;0.73;0.70;;;;;;;7.22;100.00;104098.84;6245692;23;20000;-85
2021/12/18 03:32:12;;;;;;;1.60;1.20;;;;;;;7.18;100.00;104101.38;6244957;23;20019;-85
2021/12/18 03:34:37;;;;;;;0.98;0.90;;;;;;;7.22;100.00;104096.19;6244804;23;20004;-83
2021/12/18 03:37:04;;;;;;;2.15;1.90;;;;;;;7.23;100.00;104089.16;6245612;23;20015;-84
2021/12/18 03:39:30;;;;;;;0.88;0.80;;;;;;;7.20;100.00;104095.25;6245660;23;20000;-84
2021/12/18 03:41:55;;;;;;;2.28;1.65;;;;;;;7.26;100.00;104092.78;6245427;23;20036;-84
2021/12/18 03:44:21;;;;;;;1.45;1.00;;;;;;;7.20;100.00;104086.47;6246064;23;20008;-84
2021/12/18 03:46:47;;;;;;;1.48;0.98;;;;;;;7.20;100.00;104089.09;6245251;23;20420;-84
2021/12/18 03:49:13;;;;;;;2.45;1.15;;;;;;;7.29;100.00;104086.66;6244602;23;20004;-84
2021/12/18 03:51:38;;;;;;;1.40;0.98;;;;;;;7.23;100.00;104097.09;6246271;23;20036;-84
2021/12/18 03:54:04;;;;;;;1.83;1.55;;;;;;;7.18;100.00;104083.78;6245522;23;20020;-84
2021/12/18 03:56:29;;;;;;;1.48;0.80;;;;;;;7.25;100.00;104079.50;6244903;23;20054;-84
2021/12/18 03:58:55;;;;;;;2.53;1.10;;;;;;;7.26;100.00;104086.59;6246216;23;20004;-84
2021/12/18 04:01:21;;;;;;;1.20;1.10;;;;;;;7.25;100.00;104083.03;6245994;23;20035;-84
2021/12/18 04:03:46;;;;;;;1.55;1.35;;;;;;;7.28;100.00;104090.16;6246268;23;20079;-83
2021/12/18 04:06:12;;;;;;;1.30;0.93;;;;;;;7.24;100.00;104078.63;6246301;23;20449;-84
2021/12/18 04:08:37;;;;;;;0.75;0.75;;;;;;;7.11;100.00;104075.66;6248460;23;20023;-84
2021/12/18 04:11:03;;;;;;;1.35;1.02;;;;;;;7.11;100.00;104076.56;6248020;23;20073;-84
2021/12/18 04:13:29;;;;;;;1.08;0.93;;;;;;;7.11;100.00;104076.56;6248357;23;20000;-84
2021/12/18 04:15:55;;;;;;;1.30;1.20;;;;;;;7.06;100.00;104077.31;6248536;23;20011;-84
2021/12/18 04:18:20;;;;;;;1.83;1.05;;;;;;;7.10;100.00;104079.16;6247305;23;20344;-84
2021/12/18 04:20:45;;;;;;;0.73;0.60;;;;;;;7.11;100.00;104083.56;6247534;23;20008;-83
2021/12/18 04:23:11;;;;;;;1.58;1.48;;;;;;;7.02;100.00;104086.91;6248096;23;20080;-84
2021/12/18 04:25:36;;;;;;;3.05;1.42;;;;;;;7.02;100.00;104088.66;6247636;23;20015;-84
2021/12/18 04:28:01;;;;;;;1.85;1.13;;;;;;;6.99;100.00;104089.50;6247870;23;20008;-83
2021/12/18 04:30:27;;;;;;;1.80;1.00;;;;;;;7.07;100.00;104097.59;6246424;23;20351;-83
2021/12/18 04:32:52;;;;;;;1.70;0.75;;;;;;;7.06;100.00;104094.03;6238357;23;20030;-83
2021/12/18 04:35:18;;;;;;;4.07;1.92;;;;;;;7.07;100.00;104094.94;6247218;23;20015;-83
2021/12/18 04:37:43;;;;;;;5.85;1.05;;;;;;;6.97;100.00;104093.84;6245657;22;20008;-83
2021/12/18 04:40:09;;;;;;;1.80;1.25;;;;;;;7.05;100.00;104099.31;6247660;22;20377;-84
2021/12/18 04:42:35;;;;;;;3.70;1.00;;;;;;;7.03;100.00;104095.72;6247579;22;20459;-83
2021/12/18 04:45:00;;;;;;;2.17;1.60;;;;;;;7.00;100.00;104095.66;6246795;22;20004;-83
2021/12/18 04:47:26;;;;;;;2.38;1.20;;;;;;;6.92;100.00;104097.22;6247186;22;20415;-83
2021/12/18 04:49:51;;;;;;;1.73;1.63;;;;;;;7.06;100.00;104101.09;6248046;22;20075;-82
2021/12/18 04:52:16;;;;;;;0.82;0.57;;;;;;;6.90;100.00;104101.59;6245975;23;20008;-83
2021/12/18 04:54:44;;;;;;;1.58;1.35;;;;;;;6.94;100.00;104103.44;6246879;23;20011;-82
2021/12/18 04:57:09;;;;;;;3.92;0.68;;;;;;;6.98;100.00;104110.59;6247430;22;20436;-83
2021/12/18 04:59:42;;;;;;;1.13;1.10;;;;;;;6.96;100.00;104114.94;6246614;22;20000;-83
2021/12/18 05:02:07;;;;;;;1.02;0.98;;;;;;;6.87;100.00;104112.97;6247000;23;20053;-82
2021/12/18 05:04:33;;;;;;;0.52;0.45;;;;;;;6.71;100.00;104120.47;6247406;22;20043;-83
2021/12/18 05:06:58;;;;;;;0.40;0.40;;;;;;;6.77;100.00;104118.00;6246700;22;20008;-83
2021/12/18 05:09:23;;;;;;;1.38;0.73;;;;;;;6.75;100.00;104117.94;6246543;22;20012;-83
2021/12/18 05:11:50;;;;;;;1.23;1.13;;;;;;;6.78;100.00;104122.41;6248040;23;20004;-83
2021/12/18 05:14:15;;;;;;;1.33;1.10;;;;;;;6.65;100.00;104117.69;6246965;22;20083;-82
2021/12/18 05:16:41;;;;;;;0.65;0.43;;;;;;;6.60;100.00;104132.53;6247476;23;20000;-83
2021/12/18 05:19:06;;;;;;;1.00;0.50;;;;;;;6.57;100.00;104132.44;6247587;23;20320;-83
2021/12/18 05:21:32;;;;;;;0.40;0.40;;;;;;;6.61;100.00;104135.19;6248194;23;20130;-83
2021/12/18 05:23:57;;;;;;;0.40;0.40;;;;;;;6.61;100.00;104142.22;6248312;22;20004;-83
2021/12/18 05:26:22;;;;;;;0.68;0.68;;;;;;;6.49;100.00;104137.53;6248324;22;20359;-83
2021/12/18 05:28:48;;;;;;;0.68;0.68;;;;;;;6.54;100.00;104137.66;6248277;22;20004;-82
2021/12/18 05:31:16;;;;;;;0.45;0.45;;;;;;;6.55;100.00;104134.16;6246141;23;20004;-83
2021/12/18 05:33:47;;;;;;;0.45;0.45;;;;;;;6.46;100.00;104123.34;6246520;23;20000;-83
2021/12/18 05:36:30;;;;;;;0.40;0.40;;;;;;;6.48;100.00;104132.19;6247290;23;20000;-83
2021/12/18 05:39:00;;;;;;;0.47;0.40;;;;;;;6.38;100.00;104128.44;6247495;23;20297;-83
2021/12/18 05:41:26;;;;;;;0.70;0.70;;;;;;;6.32;100.00;104132.66;6247543;23;20036;-83
2021/12/18 05:44:03;;;;;;;1.65;1.38;;;;;;;6.37;100.00;104131.91;6247123;23;20008;-83
2021/12/18 05:46:29;;;;;;;0.80;0.75;;;;;;;6.36;100.00;104129.22;6247053;23;20007;-83
2021/12/18 05:48:54;;;;;;;0.95;0.50;;;;;;;6.37;100.00;104131.03;6246515;23;20107;-85
2021/12/18 05:51:20;;;;;;;0.70;0.70;;;;;;;6.31;100.00;104131.75;6246450;23;20012;-83
2021/12/18 05:53:45;;;;;;;1.60;1.50;;;;;;;6.36;100.00;104139.78;6247059;23;20000;-84
2021/12/18 05:56:11;;;;;;;0.98;0.73;;;;;;;6.35;100.00;104138.00;6245872;23;20000;-83
2021/12/18 05:58:36;;;;;;;1.02;1.00;;;;;;;6.39;100.00;104134.59;6245481;23;20392;-84
2021/12/18 06:01:02;;;;;;;0.80;0.80;;;;;;;6.46;100.00;104134.78;6245597;23;20031;-83
2021/12/18 06:03:28;;;;;;;0.52;0.52;;;;;;;6.36;100.00;104124.84;6245476;23;20007;-83
2021/12/18 06:05:53;;;;;;;0.98;0.88;;;;;;;6.30;100.00;104126.44;6246464;23;20016;-84
2021/12/18 06:08:18;;;;;;;0.80;0.75;;;;;;;6.33;100.00;104123.88;6245980;23;20305;-84
2021/12/18 06:10:44;;;;;;;1.45;1.35;;;;;;;6.22;100.00;104132.38;6246259;23;20000;-84
2021/12/18 06:13:09;;;;;;;1.23;0.80;;;;;;;6.19;100.00;104124.38;6244767;23;20000;-84
2021/12/18 06:15:35;;;;;;;0.52;0.52;;;;;;;6.07;100.00;104124.06;6246162;23;20012;-83
2021/12/18 06:18:01;;;;;;;1.42;1.02;;;;;;;6.07;100.00;104120.50;6245417;23;20356;-83
2021/12/18 06:20:28;;;;;;;0.80;0.80;;;;;;;6.05;100.00;104122.22;6246167;23;20077;-84
2021/12/18 06:22:54;;;;;;;0.98;0.90;;;;;;;6.04;100.00;104123.06;6245736;23;20087;-84
2021/12/18 06:25:19;;;;;;;0.60;0.60;;;;;;;6.01;100.00;104120.34;6244574;23;20039;-83
2021/12/18 06:27:45;;;;;;;3.35;1.98;;;;;;;6.00;100.00;104124.72;6244999;23;20008;-83
2021/12/18 06:30:11;;;;;;;3.03;0.73;;;;;;;5.98;100.00;104125.53;6244018;23;20079;-85
2021/12/18 06:32:37;;;;;;;0.57;0.57;;;;;;;6.02;100.00;104123.03;6244643;23;20027;-84
2021/12/18 06:35:03;;;;;;;0.98;0.85;;;;;;;5.98;100.00;104120.25;6244943;23;20011;-84
2021/12/18 06:37:29;;;;;;;0.47;0.43;;;;;;;5.95;100.00;104125.44;6242120;23;20008;-80
2021/12/18 06:39:54;;;;;;;2.25;0.60;;;;;;;5.94;100.00;104116.63;6244561;23;20008;-81
2021/12/18 06:42:20;;;;;;;1.13;1.05;;;;;;;5.97;100.00;104124.63;6244178;23;20031;-81
2021/12/18 06:44:45;;;;;;;1.05;0.98;;;;;;;5.95;100.00;104125.44;6242702;23;20004;-81
2021/12/18 06:47:10;;;;;;;1.58;1.35;;;;;;;5.86;100.00;104122.56;6243598;23;20319;-81
2021/12/18 06:49:36;;;;;;;0.43;0.43;;;;;;;5.81;100.00;104116.22;6243783;23;20004;-81
2021/12/18 06:52:01;;;;;;;3.63;1.00;;;;;;;5.84;100.00;104122.53;6242521;23;20146;-79
2021/12/18 06:54:27;;;;;;;0.50;0.50;;;;;;;5.77;100.00;104130.16;6245040;23;20089;-79
2021/12/18 06:56:52;;;;;;;1.60;0.65;;;;;;;5.86;100.00;104127.84;6244758;23;20441;-80
2021/12/18 06:59:17;;;;;;;0.43;0.43;;;;;;;5.79;100.00;104126.72;6244231;23;20000;-82
2021/12/18 07:01:43;;;;;;;0.30;0.30;;;;;;;5.81;100.00;104130.31;6244861;23;20019;-78
2021/12/18 07:04:12;;;;;;;1.48;1.38;;;;;;;5.73;100.00;104126.56;6245689;23;20312;-85
2021/12/18 07:06:47;;;;;;;0.57;0.57;;;;;;;5.72;100.00;104126.50;6246960;23;20004;-85
2021/12/18 07:09:29;;;;;;;2.03;0.57;;;;;;;5.69;100.00;104127.28;6251472;23;20000;-85
2021/12/18 07:12:02;;;;;;;2.85;1.02;;;;;;;5.62;100.00;104127.97;6250903;23;20115;-86
2021/12/18 07:14:28;;;;;;;0.43;0.43;;;;;;;5.68;100.00;104125.53;6246960;23;20012;-88
2021/12/18 07:16:53;;;;;;;1.20;1.10;;;;;;;5.65;100.00;104125.44;6246720;23;20075;-88
2021/12/18 07:19:19;;;;;;;0.95;0.68;;;;;;;5.46;100.00;104130.09;6246281;23;20020;-88
2021/12/18 07:21:56;;;;;;;1.45;1.35;;;;;;;5.49;100.00;104131.09;6245699;23;20412;-87
2021/12/18 07:24:22;;;;;;;1.67;0.95;;;;;;;5.50;100.00;104134.63;6245681;23;20377;-86
2021/12/18 07:26:56;;;;;;;0.80;0.70;;;;;;;5.55;100.00;104139.19;6244646;23;20042;-88
2021/12/18 07:29:33;;;;;;;0.50;0.50;;;;;;;5.53;100.00;104132.09;6246667;23;20010;-87
2021/12/18 07:32:02;;;;;;;1.58;1.48;;;;;;;5.50;100.00;104143.41;6246199;23;20091;-90
2021/12/18 07:34:29;;;;;;;0.82;0.82;;;;;;;5.51;100.00;104134.69;6249862;23;20004;-90
